sensor_id;sensor_type;location;lat;lon;timestamp;P1;durP1;ratioP1;P2;durP2;ratioP2
54545;SDS011;40444;45.184;9.850;2022-11-15T17:23:58;32.77;;;22.73;;
54545;SDS011;40444;45.184;9.850;2022-11-15T17:26:26;39.97;;;26.15;;
54545;SDS011;40444;45.184;9.850;2022-11-15T17:28:58;39.08;;;26.50;;
54545;SDS011;40444;45.184;9.850;2022-11-15T17:31:28;35.78;;;24.73;;
54545;SDS011;40444;45.184;9.850;2022-11-15T17:34:00;35.22;;;24.77;;
54545;SDS011;40444;45.184;9.850;2022-11-15T17:36:29;31.27;;;22.50;;
54545;SDS011;40444;45.184;9.850;2022-11-15T17:38:58;33.55;;;25.17;;
54545;SDS011;40444;45.184;9.850;2022-11-15T17:41:27;28.70;;;22.77;;
54545;SDS011;40444;45.184;9.850;2022-11-15T17:43:56;28.35;;;22.90;;
54545;SDS011;40444;45.184;9.850;2022-11-15T17:46:27;26.52;;;22.63;;
54545;SDS011;40444;45.184;9.850;2022-11-15T17:48:55;27.27;;;21.05;;
54545;SDS011;40444;45.184;9.850;2022-11-15T17:51:24;25.95;;;19.88;;
54545;SDS011;40444;45.184;9.850;2022-11-15T17:53:54;27.65;;;20.23;;
54545;SDS011;40444;45.184;9.850;2022-11-15T17:56:23;23.35;;;20.25;;
54545;SDS011;40444;45.184;9.850;2022-11-15T17:58:54;24.23;;;18.58;;
54545;SDS011;40444;45.184;9.850;2022-11-15T18:01:28;23.77;;;18.20;;
54545;SDS011;40444;45.184;9.850;2022-11-15T18:03:59;22.48;;;17.95;;
54545;SDS011;40444;45.184;9.850;2022-11-15T18:06:29;23.33;;;18.23;;
54545;SDS011;40444;45.184;9.850;2022-11-15T18:09:00;23.17;;;17.15;;
54545;SDS011;40444;45.184;9.850;2022-11-15T18:11:30;24.20;;;18.02;;
54545;SDS011;40444;45.184;9.850;2022-11-15T18:14:02;23.08;;;18.02;;
54545;SDS011;40444;45.184;9.850;2022-11-15T18:16:32;21.98;;;17.83;;
54545;SDS011;40444;45.184;9.850;2022-11-15T18:19:03;21.08;;;17.05;;
54545;SDS011;40444;45.184;9.850;2022-11-15T18:21:42;22.33;;;17.20;;
54545;SDS011;40444;45.184;9.850;2022-11-15T18:24:28;20.80;;;16.73;;
54545;SDS011;40444;45.184;9.850;2022-11-15T18:27:01;20.63;;;16.55;;
54545;SDS011;40444;45.184;9.850;2022-11-15T18:29:31;21.90;;;16.60;;
54545;SDS011;40444;45.184;9.850;2022-11-15T18:32:02;22.05;;;17.30;;
54545;SDS011;40444;45.184;9.850;2022-11-15T18:34:38;22.43;;;18.20;;
54545;SDS011;40444;45.184;9.850;2022-11-15T18:37:06;21.33;;;17.00;;
54545;SDS011;40444;45.184;9.850;2022-11-15T18:39:34;25.20;;;18.33;;
54545;SDS011;40444;45.184;9.850;2022-11-15T18:42:03;26.45;;;18.75;;
54545;SDS011;40444;45.184;9.850;2022-11-15T18:44:31;24.10;;;18.85;;
54545;SDS011;40444;45.184;9.850;2022-11-15T18:47:00;26.48;;;18.73;;
54545;SDS011;40444;45.184;9.850;2022-11-15T18:49:28;20.73;;;17.35;;
54545;SDS011;40444;45.184;9.850;2022-11-15T18:51:57;20.38;;;16.77;;
54545;SDS011;40444;45.184;9.850;2022-11-15T18:54:25;28.52;;;17.38;;
54545;SDS011;40444;45.184;9.850;2022-11-15T18:56:58;24.02;;;18.13;;
54545;SDS011;40444;45.184;9.850;2022-11-15T18:59:27;22.83;;;18.33;;
54545;SDS011;40444;45.184;9.850;2022-11-15T19:01:56;23.13;;;17.65;;
54545;SDS011;40444;45.184;9.850;2022-11-15T19:04:24;22.95;;;16.95;;
54545;SDS011;40444;45.184;9.850;2022-11-15T19:06:53;23.67;;;16.80;;
54545;SDS011;40444;45.184;9.850;2022-11-15T19:09:21;21.35;;;16.67;;
54545;SDS011;40444;45.184;9.850;2022-11-15T19:11:57;25.02;;;18.90;;
54545;SDS011;40444;45.184;9.850;2022-11-15T19:14:25;26.88;;;20.40;;
54545;SDS011;40444;45.184;9.850;2022-11-15T19:16:55;28.95;;;20.92;;
54545;SDS011;40444;45.184;9.850;2022-11-15T19:19:24;36.85;;;26.33;;
54545;SDS011;40444;45.184;9.850;2022-11-15T19:21:55;32.13;;;22.65;;
54545;SDS011;40444;45.184;9.850;2022-11-15T19:24:26;22.42;;;16.77;;
54545;SDS011;40444;45.184;9.850;2022-11-15T19:26:55;20.58;;;16.20;;
54545;SDS011;40444;45.184;9.850;2022-11-15T19:29:24;21.50;;;16.17;;
54545;SDS011;40444;45.184;9.850;2022-11-15T19:31:53;24.73;;;17.13;;
54545;SDS011;40444;45.184;9.850;2022-11-15T19:34:22;23.00;;;16.98;;
54545;SDS011;40444;45.184;9.850;2022-11-15T19:36:52;24.70;;;18.40;;
54545;SDS011;40444;45.184;9.850;2022-11-15T19:39:20;24.98;;;18.15;;
54545;SDS011;40444;45.184;9.850;2022-11-15T19:41:49;24.00;;;18.10;;
54545;SDS011;40444;45.184;9.850;2022-11-15T19:44:17;27.42;;;18.05;;
54545;SDS011;40444;45.184;9.850;2022-11-15T19:46:47;24.08;;;18.23;;
54545;SDS011;40444;45.184;9.850;2022-11-15T19:49:15;31.65;;;20.73;;
54545;SDS011;40444;45.184;9.850;2022-11-15T19:51:44;25.08;;;18.33;;
54545;SDS011;40444;45.184;9.850;2022-11-15T19:54:15;22.15;;;15.70;;
54545;SDS011;40444;45.184;9.850;2022-11-15T19:56:44;22.83;;;16.42;;
54545;SDS011;40444;45.184;9.850;2022-11-15T19:59:13;54.33;;;31.38;;
54545;SDS011;40444;45.184;9.850;2022-11-15T20:01:42;42.35;;;25.30;;
54545;SDS011;40444;45.184;9.850;2022-11-15T20:04:10;32.88;;;22.30;;
54545;SDS011;40444;45.184;9.850;2022-11-15T20:06:39;26.45;;;17.70;;
54545;SDS011;40444;45.184;9.850;2022-11-15T20:09:10;21.08;;;16.02;;
54545;SDS011;40444;45.184;9.850;2022-11-15T20:11:40;20.67;;;15.60;;
54545;SDS011;40444;45.184;9.850;2022-11-15T20:14:09;19.17;;;14.63;;
54545;SDS011;40444;45.184;9.850;2022-11-15T20:16:39;21.02;;;14.23;;
54545;SDS011;40444;45.184;9.850;2022-11-15T20:19:08;20.05;;;15.35;;
54545;SDS011;40444;45.184;9.850;2022-11-15T20:21:39;20.77;;;14.52;;
54545;SDS011;40444;45.184;9.850;2022-11-15T20:24:07;19.05;;;14.88;;
54545;SDS011;40444;45.184;9.850;2022-11-15T20:26:36;22.60;;;14.85;;
54545;SDS011;40444;45.184;9.850;2022-11-15T20:29:06;16.92;;;13.85;;
54545;SDS011;40444;45.184;9.850;2022-11-15T20:31:36;18.65;;;14.68;;
54545;SDS011;40444;45.184;9.850;2022-11-15T20:34:05;21.52;;;15.50;;
54545;SDS011;40444;45.184;9.850;2022-11-15T20:36:34;20.33;;;15.82;;
54545;SDS011;40444;45.184;9.850;2022-11-15T20:39:02;21.85;;;16.05;;
54545;SDS011;40444;45.184;9.850;2022-11-15T20:41:33;20.60;;;17.42;;
54545;SDS011;40444;45.184;9.850;2022-11-15T20:44:01;22.30;;;16.17;;
54545;SDS011;40444;45.184;9.850;2022-11-15T20:46:30;21.50;;;15.68;;
54545;SDS011;40444;45.184;9.850;2022-11-15T20:48:59;19.60;;;15.02;;
54545;SDS011;40444;45.184;9.850;2022-11-15T20:51:27;21.77;;;15.75;;
54545;SDS011;40444;45.184;9.850;2022-11-15T20:53:55;20.77;;;15.98;;
54545;SDS011;40444;45.184;9.850;2022-11-15T20:56:24;19.10;;;15.00;;
54545;SDS011;40444;45.184;9.850;2022-11-15T20:58:53;19.20;;;15.75;;
54545;SDS011;40444;45.184;9.850;2022-11-15T21:01:23;20.30;;;16.73;;
54545;SDS011;40444;45.184;9.850;2022-11-15T21:03:53;20.80;;;16.08;;
54545;SDS011;40444;45.184;9.850;2022-11-15T21:06:23;20.08;;;16.27;;
54545;SDS011;40444;45.184;9.850;2022-11-15T21:08:52;20.75;;;16.23;;
54545;SDS011;40444;45.184;9.850;2022-11-15T21:11:40;20.48;;;16.95;;
54545;SDS011;40444;45.184;9.850;2022-11-15T21:16:56;19.75;;;15.68;;
54545;SDS011;40444;45.184;9.850;2022-11-15T21:19:25;21.23;;;16.15;;
54545;SDS011;40444;45.184;9.850;2022-11-15T21:22:02;19.35;;;15.23;;
54545;SDS011;40444;45.184;9.850;2022-11-15T21:24:31;22.98;;;16.88;;
54545;SDS011;40444;45.184;9.850;2022-11-15T21:26:59;21.25;;;16.15;;
54545;SDS011;40444;45.184;9.850;2022-11-15T21:29:28;20.80;;;16.83;;
54545;SDS011;40444;45.184;9.850;2022-11-15T21:32:20;20.00;;;15.35;;
54545;SDS011;40444;45.184;9.850;2022-11-15T21:34:48;24.02;;;18.23;;
54545;SDS011;40444;45.184;9.850;2022-11-15T21:37:17;21.75;;;16.50;;
54545;SDS011;40444;45.184;9.850;2022-11-15T21:39:45;20.95;;;16.42;;
54545;SDS011;40444;45.184;9.850;2022-11-15T21:42:14;21.38;;;16.05;;
54545;SDS011;40444;45.184;9.850;2022-11-15T21:44:42;21.85;;;17.02;;
54545;SDS011;40444;45.184;9.850;2022-11-15T21:47:11;19.13;;;15.75;;
54545;SDS011;40444;45.184;9.850;2022-11-15T21:49:39;22.98;;;16.27;;
54545;SDS011;40444;45.184;9.850;2022-11-15T21:52:07;18.45;;;14.63;;
54545;SDS011;40444;45.184;9.850;2022-11-15T21:54:36;20.10;;;15.55;;
54545;SDS011;40444;45.184;9.850;2022-11-15T21:57:05;20.10;;;15.13;;
54545;SDS011;40444;45.184;9.850;2022-11-15T21:59:34;19.40;;;15.00;;
54545;SDS011;40444;45.184;9.850;2022-11-15T22:02:22;22.13;;;16.38;;
54545;SDS011;40444;45.184;9.850;2022-11-15T22:04:51;21.60;;;15.85;;
54545;SDS011;40444;45.184;9.850;2022-11-15T22:07:19;21.58;;;16.42;;
54545;SDS011;40444;45.184;9.850;2022-11-15T22:09:47;20.92;;;15.55;;
54545;SDS011;40444;45.184;9.850;2022-11-15T22:12:16;20.40;;;15.75;;
54545;SDS011;40444;45.184;9.850;2022-11-15T22:14:44;21.45;;;16.20;;
54545;SDS011;40444;45.184;9.850;2022-11-15T22:17:15;21.88;;;15.95;;
54545;SDS011;40444;45.184;9.850;2022-11-15T22:19:43;19.17;;;15.32;;
54545;SDS011;40444;45.184;9.850;2022-11-15T22:22:19;19.38;;;15.35;;
54545;SDS011;40444;45.184;9.850;2022-11-15T22:24:47;21.27;;;16.58;;
54545;SDS011;40444;45.184;9.850;2022-11-15T22:27:18;19.58;;;15.27;;
54545;SDS011;40444;45.184;9.850;2022-11-15T22:29:47;20.63;;;16.13;;
54545;SDS011;40444;45.184;9.850;2022-11-15T22:32:15;20.45;;;15.40;;
54545;SDS011;40444;45.184;9.850;2022-11-15T22:34:43;22.13;;;16.42;;
54545;SDS011;40444;45.184;9.850;2022-11-15T22:37:12;23.17;;;16.65;;
54545;SDS011;40444;45.184;9.850;2022-11-15T22:39:47;24.23;;;17.95;;
54545;SDS011;40444;45.184;9.850;2022-11-15T22:42:16;25.17;;;17.70;;
54545;SDS011;40444;45.184;9.850;2022-11-15T22:44:50;26.00;;;19.10;;
54545;SDS011;40444;45.184;9.850;2022-11-15T22:47:18;24.05;;;16.98;;
54545;SDS011;40444;45.184;9.850;2022-11-15T22:49:47;23.65;;;17.58;;
54545;SDS011;40444;45.184;9.850;2022-11-15T22:52:15;23.88;;;16.30;;
54545;SDS011;40444;45.184;9.850;2022-11-15T22:54:43;23.48;;;16.67;;
54545;SDS011;40444;45.184;9.850;2022-11-15T22:57:11;19.80;;;14.55;;
54545;SDS011;40444;45.184;9.850;2022-11-15T22:59:40;20.15;;;15.50;;
54545;SDS011;40444;45.184;9.850;2022-11-15T23:02:09;19.73;;;15.85;;
54545;SDS011;40444;45.184;9.850;2022-11-15T23:04:37;19.52;;;15.15;;
54545;SDS011;40444;45.184;9.850;2022-11-15T23:07:06;19.20;;;14.70;;
54545;SDS011;40444;45.184;9.850;2022-11-15T23:09:34;21.17;;;15.45;;
54545;SDS011;40444;45.184;9.850;2022-11-15T23:12:04;19.92;;;14.55;;
54545;SDS011;40444;45.184;9.850;2022-11-15T23:14:50;20.77;;;15.45;;
54545;SDS011;40444;45.184;9.850;2022-11-15T23:17:19;21.23;;;16.33;;
54545;SDS011;40444;45.184;9.850;2022-11-15T23:19:47;20.50;;;14.88;;
54545;SDS011;40444;45.184;9.850;2022-11-15T23:22:16;20.20;;;15.35;;
54545;SDS011;40444;45.184;9.850;2022-11-15T23:25:03;20.67;;;14.75;;
54545;SDS011;40444;45.184;9.850;2022-11-15T23:27:31;22.20;;;15.80;;
54545;SDS011;40444;45.184;9.850;2022-11-15T23:30:00;19.80;;;14.93;;
54545;SDS011;40444;45.184;9.850;2022-11-15T23:32:46;22.40;;;16.20;;
54545;SDS011;40444;45.184;9.850;2022-11-15T23:35:34;21.10;;;15.40;;
54545;SDS011;40444;45.184;9.850;2022-11-15T23:38:02;22.30;;;16.25;;
54545;SDS011;40444;45.184;9.850;2022-11-15T23:40:30;21.55;;;15.60;;
54545;SDS011;40444;45.184;9.850;2022-11-15T23:42:58;22.63;;;16.83;;
54545;SDS011;40444;45.184;9.850;2022-11-15T23:45:27;21.83;;;16.40;;
54545;SDS011;40444;45.184;9.850;2022-11-15T23:47:55;23.40;;;16.25;;
54545;SDS011;40444;45.184;9.850;2022-11-15T23:50:28;21.20;;;15.88;;
54545;SDS011;40444;45.184;9.850;2022-11-15T23:52:56;23.33;;;16.77;;
54545;SDS011;40444;45.184;9.850;2022-11-15T23:55:24;23.52;;;16.42;;
54545;SDS011;40444;45.184;9.850;2022-11-15T23:57:52;23.17;;;16.50;;
